Time;durP1;ratioP1;P1;durP2;ratioP2;P2;SDS_P1;SDS_P2;PMS_P1;PMS_P2;Temp;Humidity;BMP_temperature;BMP_pressure;BME280_temperature;BME280_humidity;BME280_pressure;Samples;Min_cycle;Max_cycle;Signal;HPM_P1;HPM_P2
2022/03/20 00:01:30;;;;;;;9.95;1.08;;;22.80;99.90;;;;;;5024594;28;20034;-68
2022/03/20 00:03:58;;;;;;;10.10;1.70;;;22.90;99.90;;;;;;5027503;28;20052;-68
2022/03/20 00:06:25;;;;;;;6.57;1.20;;;23.10;99.90;;;;;;5025638;28;20038;-68
2022/03/20 00:08:54;;;;;;;16.33;2.28;;;23.20;99.90;;;;;;5028733;28;20029;-69
2022/03/20 00:11:21;;;;;;;7.97;1.90;;;23.50;99.90;;;;;;5028244;28;20117;-70
2022/03/20 00:13:49;;;;;;;13.93;2.38;;;23.80;99.90;;;;;;5027324;28;20385;-69
2022/03/20 00:16:16;;;;;;;15.68;3.20;;;23.80;99.90;;;;;;5027460;28;20784;-69
2022/03/20 00:18:43;;;;;;;11.90;2.05;;;23.60;99.90;;;;;;5029360;28;20128;-69
2022/03/20 00:21:12;;;;;;;7.78;1.35;;;23.40;99.90;;;;;;5026491;28;20083;-69
2022/03/20 00:23:39;;;;;;;11.45;1.98;;;23.20;99.90;;;;;;5031062;28;20021;-69
2022/03/20 00:26:07;;;;;;;9.10;1.60;;;23.30;99.90;;;;;;5023959;28;20071;-68
2022/03/20 00:28:35;;;;;;;8.18;1.40;;;23.30;99.90;;;;;;5028411;28;20037;-68
2022/03/20 00:31:02;;;;;;;6.72;1.30;;;23.20;99.90;;;;;;5029456;28;20701;-69
2022/03/20 00:33:29;;;;;;;7.25;1.17;;;23.30;99.90;;;;;;5031274;28;20044;-69
2022/03/20 00:35:57;;;;;;;8.18;1.58;;;23.60;99.90;;;;;;5027760;28;20025;-69
2022/03/20 00:38:24;;;;;;;9.15;1.65;;;24.00;99.90;;;;;;5030624;28;20033;-69
2022/03/20 00:40:51;;;;;;;12.23;1.92;;;24.10;99.90;;;;;;5031466;28;20029;-67
2022/03/20 00:43:19;;;;;;;5.57;1.20;;;23.90;99.90;;;;;;5022867;28;20440;-68
2022/03/20 00:45:46;;;;;;;7.40;1.80;;;23.60;99.90;;;;;;5028175;28;20022;-69
2022/03/20 00:48:13;;;;;;;8.50;2.17;;;24.00;99.90;;;;;;5030518;28;20120;-69
2022/03/20 00:50:41;;;;;;;9.15;1.35;;;24.40;99.90;;;;;;5027726;28;20018;-69
2022/03/20 00:53:09;;;;;;;16.45;1.88;;;24.20;99.90;;;;;;5030124;28;20719;-69
2022/03/20 00:55:37;;;;;;;9.65;1.48;;;24.00;99.90;;;;;;5028951;28;20044;-68
2022/03/20 00:58:04;;;;;;;8.57;1.10;;;23.80;99.90;;;;;;5028689;28;20030;-70
2022/03/20 01:00:32;;;;;;;10.35;1.33;;;24.20;99.90;;;;;;5027658;28;20041;-69
2022/03/20 01:03:00;;;;;;;8.93;1.63;;;24.10;99.90;;;;;;5029185;28;20083;-69
2022/03/20 01:05:27;;;;;;;5.50;1.00;;;24.00;99.90;;;;;;5029518;28;20044;-68
2022/03/20 01:08:00;;;;;;;11.48;1.88;;;23.80;99.90;;;;;;5027332;28;20097;-69
2022/03/20 01:10:27;;;;;;;10.00;1.95;;;24.10;99.90;;;;;;5031188;28;20042;-69
2022/03/20 01:12:56;;;;;;;9.90;1.33;;;24.00;99.90;;;;;;5029100;28;20119;-69
2022/03/20 01:15:23;;;;;;;7.32;2.22;;;23.60;99.90;;;;;;5029805;28;20478;-69
2022/03/20 01:17:50;;;;;;;7.35;1.27;;;23.40;99.90;;;;;;5027028;28;20052;-69
2022/03/20 01:20:18;;;;;;;8.60;1.45;;;23.40;99.90;;;;;;5029353;28;20029;-69
2022/03/20 01:22:45;;;;;;;10.63;2.15;;;23.90;99.90;;;;;;5029387;28;20030;-69
2022/03/20 01:25:12;;;;;;;7.13;1.42;;;24.40;99.90;;;;;;5031515;28;20047;-69
2022/03/20 01:27:40;;;;;;;9.32;1.73;;;24.70;99.90;;;;;;5020444;28;20076;-69
2022/03/20 01:30:08;;;;;;;8.57;1.92;;;24.50;99.90;;;;;;5026509;28;20051;-69
2022/03/20 01:32:35;;;;;;;17.27;2.13;;;23.80;99.90;;;;;;5028597;28;20033;-70
2022/03/20 01:35:03;;;;;;;9.73;1.90;;;23.50;99.90;;;;;;5034974;28;20032;-69
2022/03/20 01:37:30;;;;;;;6.18;1.27;;;23.80;99.90;;;;;;5033615;28;20068;-70
2022/03/20 01:39:57;;;;;;;9.48;1.75;;;24.30;99.90;;;;;;5034825;28;20025;-69
2022/03/20 01:42:25;;;;;;;11.55;1.25;;;24.40;99.90;;;;;;5032247;28;20095;-69
2022/03/20 01:44:52;;;;;;;8.88;1.60;;;24.50;99.90;;;;;;5024744;28;20081;-70
2022/03/20 01:47:20;;;;;;;9.30;1.55;;;24.50;99.90;;;;;;5026863;28;20041;-70
2022/03/20 01:49:48;;;;;;;10.25;1.17;;;24.50;99.90;;;;;;5033925;28;20034;-70
2022/03/20 01:52:24;;;;;;;7.80;1.77;;;24.70;99.90;;;;;;5033310;28;20052;-70
2022/03/20 01:54:51;;;;;;;10.27;1.77;;;24.70;99.90;;;;;;5034808;28;20108;-70
2022/03/20 01:57:21;;;;;;;8.77;1.30;;;24.90;99.90;;;;;;5032106;28;20059;-69
2022/03/20 01:59:50;;;;;;;9.48;1.17;;;25.10;99.90;;;;;;5023287;28;20168;-70
2022/03/20 02:02:17;;;;;;;6.22;1.35;;;25.10;99.90;;;;;;5026792;28;20056;-70
2022/03/20 02:04:45;;;;;;;9.82;1.98;;;25.10;99.90;;;;;;5031215;28;20064;-70
2022/03/20 02:07:13;;;;;;;8.85;1.80;;;25.00;99.90;;;;;;5032890;28;20091;-69
2022/03/20 02:09:42;;;;;;;8.40;1.52;;;24.60;99.90;;;;;;5030639;28;20108;-70
2022/03/20 02:12:11;;;;;;;9.90;2.75;;;24.70;99.90;;;;;;5025640;28;20080;-70
2022/03/20 02:14:39;;;;;;;8.63;1.50;;;24.70;99.90;;;;;;5029108;28;20022;-69
2022/03/20 02:17:12;;;;;;;7.85;1.30;;;24.70;99.90;;;;;;5026797;28;20029;-70
2022/03/20 02:19:41;;;;;;;9.52;1.38;;;24.90;99.90;;;;;;5028072;28;20037;-69
2022/03/20 02:22:09;;;;;;;10.38;1.73;;;25.00;99.90;;;;;;5026071;28;20025;-70
2022/03/20 02:24:42;;;;;;;9.23;1.77;;;24.80;99.90;;;;;;5029025;28;20470;-70
2022/03/20 02:27:19;;;;;;;6.93;1.63;;;24.80;99.90;;;;;;5028956;28;20021;-69
2022/03/20 02:29:58;;;;;;;9.70;1.63;;;24.80;99.90;;;;;;5043180;28;20041;-70
2022/03/20 02:32:27;;;;;;;4.93;1.25;;;24.90;99.90;;;;;;5023711;28;20397;-71
2022/03/20 02:35:00;;;;;;;9.77;1.85;;;25.10;99.90;;;;;;5024637;28;20026;-70
2022/03/20 02:37:28;;;;;;;11.73;1.38;;;25.40;99.90;;;;;;5025781;28;20078;-70
2022/03/20 02:40:02;;;;;;;5.50;0.98;;;25.20;99.90;;;;;;5022039;28;20079;-71
2022/03/20 02:42:30;;;;;;;6.47;1.10;;;25.40;99.90;;;;;;5039552;28;20083;-70
2022/03/20 02:45:06;;;;;;;9.93;1.35;;;25.40;99.90;;;;;;5027578;28;20139;-70
2022/03/20 02:47:41;;;;;;;5.63;1.10;;;25.30;99.90;;;;;;5022541;28;20081;-70
2022/03/20 02:50:19;;;;;;;14.15;2.50;;;25.30;99.90;;;;;;5027224;28;20542;-69
2022/03/20 02:52:53;;;;;;;10.27;1.70;;;25.10;99.90;;;;;;5026896;28;20028;-70
2022/03/20 02:55:22;;;;;;;10.45;1.67;;;24.90;99.90;;;;;;5023638;28;20109;-70
2022/03/20 02:57:51;;;;;;;3.80;1.15;;;25.10;99.90;;;;;;5024534;28;20658;-70
2022/03/20 03:00:25;;;;;;;8.05;1.52;;;25.20;99.90;;;;;;5026112;28;20030;-71
2022/03/20 03:02:55;;;;;;;8.93;1.55;;;25.60;99.90;;;;;;5026104;28;20112;-71
2022/03/20 03:05:25;;;;;;;6.55;1.33;;;25.20;99.90;;;;;;5027544;28;20033;-69
2022/03/20 03:10:56;;;;;;;9.07;1.17;;;24.80;99.90;;;;;;5032049;28;20386;-70
2022/03/20 03:13:27;;;;;;;6.32;1.23;;;24.70;99.90;;;;;;5028367;28;20092;-70
2022/03/20 03:16:00;;;;;;;8.48;1.70;;;25.10;99.90;;;;;;5027499;28;20026;-69
2022/03/20 03:18:27;;;;;;;7.65;1.13;;;25.00;99.90;;;;;;5021479;28;20509;-70
2022/03/20 03:20:55;;;;;;;5.43;1.15;;;24.70;99.90;;;;;;5024506;28;20507;-70
2022/03/20 03:23:24;;;;;;;11.63;1.23;;;24.80;99.90;;;;;;5028355;28;20096;-70
2022/03/20 03:25:52;;;;;;;6.15;1.15;;;25.00;99.90;;;;;;5023526;28;20489;-70
2022/03/20 03:28:20;;;;;;;7.07;1.00;;;25.00;99.90;;;;;;5026371;28;20057;-69
2022/03/20 03:30:49;;;;;;;5.28;1.00;;;24.90;99.90;;;;;;5026411;28;20017;-69
2022/03/20 03:33:19;;;;;;;10.73;2.38;;;25.00;99.90;;;;;;5024503;28;20040;-69
2022/03/20 03:35:51;;;;;;;8.40;1.40;;;24.90;99.90;;;;;;5021214;28;20040;-69
2022/03/20 03:38:20;;;;;;;8.35;1.20;;;24.90;99.90;;;;;;5024286;28;20022;-70
2022/03/20 03:40:49;;;;;;;9.80;1.08;;;25.10;99.90;;;;;;5031527;28;20033;-68
2022/03/20 03:43:19;;;;;;;9.50;1.13;;;25.10;99.90;;;;;;5031898;28;20032;-69
2022/03/20 03:45:48;;;;;;;8.23;1.45;;;25.00;99.90;;;;;;5031230;28;20083;-69
2022/03/20 03:48:16;;;;;;;6.07;1.30;;;24.90;99.90;;;;;;5044696;28;20462;-70
2022/03/20 03:50:48;;;;;;;8.38;1.27;;;24.90;99.90;;;;;;5026573;28;20474;-68
2022/03/20 03:53:15;;;;;;;7.53;1.67;;;25.10;99.90;;;;;;5023370;28;20025;-69
2022/03/20 03:55:43;;;;;;;9.23;1.85;;;24.80;99.90;;;;;;5024983;28;20033;-69
2022/03/20 03:58:13;;;;;;;10.00;1.30;;;24.50;99.90;;;;;;5028420;28;20029;-69
2022/03/20 04:00:41;;;;;;;10.15;1.65;;;24.50;99.90;;;;;;5027373;28;20057;-68
2022/03/20 04:03:09;;;;;;;14.68;2.30;;;24.50;99.90;;;;;;5025066;28;20137;-69
2022/03/20 04:05:36;;;;;;;7.35;1.40;;;24.40;99.90;;;;;;5025654;28;20091;-68
2022/03/20 04:08:07;;;;;;;8.00;1.55;;;24.50;99.90;;;;;;5026052;28;20025;-69
2022/03/20 04:10:35;;;;;;;8.35;1.67;;;24.40;99.90;;;;;;5025092;28;20045;-69
2022/03/20 04:13:03;;;;;;;8.07;1.75;;;24.40;99.90;;;;;;5027816;28;20075;-68
2022/03/20 04:15:32;;;;;;;7.75;1.50;;;24.30;99.90;;;;;;5026303;28;20039;-68
2022/03/20 04:18:01;;;;;;;15.35;1.92;;;24.10;99.90;;;;;;5027031;28;20022;-69
2022/03/20 04:20:29;;;;;;;7.20;1.40;;;24.10;99.90;;;;;;5028636;28;20065;-69
2022/03/20 04:25:42;;;;;;;8.82;2.03;;;23.90;99.90;;;;;;5030599;28;20539;-68
2022/03/20 04:28:09;;;;;;;11.52;1.67;;;24.00;99.90;;;;;;5028339;28;20486;-69
2022/03/20 04:30:37;;;;;;;7.70;1.60;;;23.90;99.90;;;;;;5017210;28;20029;-69
2022/03/20 04:33:04;;;;;;;8.00;1.63;;;23.90;99.90;;;;;;5029791;28;20051;-69
2022/03/20 04:35:32;;;;;;;9.85;1.70;;;23.80;99.90;;;;;;5030076;28;20060;-68
2022/03/20 04:37:59;;;;;;;6.07;1.50;;;23.70;99.90;;;;;;5027536;28;20148;-69
2022/03/20 04:40:27;;;;;;;8.30;1.65;;;23.70;99.90;;;;;;5025449;28;20072;-68
2022/03/20 04:42:54;;;;;;;12.07;1.60;;;23.70;99.90;;;;;;5020892;28;20018;-69
2022/03/20 04:45:22;;;;;;;11.43;2.17;;;23.60;99.90;;;;;;5040379;28;21438;-68
2022/03/20 04:58:49;;;;;;;8.98;1.83;;;23.80;99.90;;;;;;5028318;28;20104;-69
2022/03/20 05:01:17;;;;;;;11.13;2.10;;;23.80;99.90;;;;;;5031142;28;20632;-69
2022/03/20 05:03:44;;;;;;;9.70;1.50;;;23.70;99.90;;;;;;5027171;28;20509;-69
2022/03/20 05:06:11;;;;;;;5.75;1.13;;;23.80;99.90;;;;;;5030624;28;20021;-70
2022/03/20 05:08:40;;;;;;;10.73;1.90;;;23.80;99.90;;;;;;5029048;28;20197;-70
2022/03/20 05:13:53;;;;;;;8.60;1.63;;;23.70;99.90;;;;;;5028644;28;20084;-69
2022/03/20 05:16:20;;;;;;;8.15;1.90;;;23.80;99.90;;;;;;5030232;28;20037;-68
2022/03/20 05:18:48;;;;;;;10.88;1.80;;;23.60;99.90;;;;;;5028795;28;20052;-70
2022/03/20 05:21:15;;;;;;;5.75;1.15;;;23.40;99.90;;;;;;5020827;28;20022;-68
2022/03/20 05:23:43;;;;;;;8.25;1.58;;;23.20;99.90;;;;;;5028904;28;20036;-68
2022/03/20 05:26:10;;;;;;;7.93;1.55;;;23.10;99.90;;;;;;5024010;28;20076;-68
2022/03/20 05:28:37;;;;;;;8.30;1.08;;;23.10;99.90;;;;;;5029042;28;20057;-69
2022/03/20 05:31:05;;;;;;;5.57;1.20;;;23.20;99.90;;;;;;5021802;28;20079;-69
2022/03/20 05:33:32;;;;;;;11.82;2.25;;;23.20;99.90;;;;;;5029458;28;20501;-67
2022/03/20 05:36:00;;;;;;;14.13;2.08;;;23.20;99.90;;;;;;5026439;28;20021;-66
2022/03/20 05:38:28;;;;;;;9.18;1.58;;;23.30;99.90;;;;;;5027543;28;20029;-66
2022/03/20 05:41:45;;;;;;;9.73;1.17;;;23.30;99.90;;;;;;5022712;28;20048;-65
2022/03/20 05:43:43;;;;;;;10.63;2.08;;;23.30;99.90;;;;;;5022571;28;20034;-65
2022/03/20 05:46:10;;;;;;;10.75;1.77;;;23.30;99.90;;;;;;5026980;28;20051;-66
2022/03/20 05:48:37;;;;;;;13.85;2.17;;;23.30;99.90;;;;;;5029926;28;20083;-66
2022/03/20 05:51:07;;;;;;;13.55;2.13;;;23.30;99.90;;;;;;5020179;28;20398;-66
2022/03/20 05:53:34;;;;;;;14.05;2.20;;;23.30;99.90;;;;;;5027939;28;20037;-65
2022/03/20 05:58:46;;;;;;;8.20;1.25;;;23.30;99.90;;;;;;5027574;28;20088;-67
2022/03/20 06:01:14;;;;;;;10.48;1.48;;;23.30;99.90;;;;;;5029412;28;20037;-66
2022/03/20 06:03:41;;;;;;;11.93;1.90;;;23.10;99.90;;;;;;5028466;28;20057;-66
2022/03/20 06:06:08;;;;;;;10.10;2.03;;;23.00;99.90;;;;;;5027990;28;20084;-66
2022/03/20 06:08:38;;;;;;;7.45;2.13;;;23.10;99.90;;;;;;5031411;28;20057;-66
2022/03/20 06:11:06;;;;;;;5.90;1.40;;;23.10;99.90;;;;;;5032776;28;20093;-66
2022/03/20 06:13:35;;;;;;;10.07;1.65;;;23.20;99.90;;;;;;5031962;28;20083;-67
2022/03/20 06:16:06;;;;;;;8.38;1.42;;;23.10;99.90;;;;;;5030113;28;20061;-66
2022/03/20 06:18:34;;;;;;;16.65;2.58;;;23.00;99.90;;;;;;5032199;28;20029;-66
2022/03/20 06:21:01;;;;;;;9.65;1.90;;;23.00;99.90;;;;;;5023962;28;20037;-66
2022/03/20 06:23:31;;;;;;;8.57;1.88;;;22.90;99.90;;;;;;5022939;28;20061;-66
2022/03/20 06:25:59;;;;;;;10.20;2.00;;;22.90;99.90;;;;;;5029241;28;20055;-67
2022/03/20 06:28:26;;;;;;;9.80;1.13;;;22.80;99.90;;;;;;5033351;28;20030;-66
2022/03/20 06:30:54;;;;;;;11.43;1.23;;;22.80;99.90;;;;;;5032058;28;20350;-66
2022/03/20 06:33:21;;;;;;;7.13;1.52;;;22.80;99.90;;;;;;5030588;28;20036;-66
2022/03/20 06:35:49;;;;;;;9.32;1.52;;;22.70;99.90;;;;;;5027862;28;20108;-67
2022/03/20 06:38:16;;;;;;;10.18;1.90;;;22.70;99.90;;;;;;5030079;28;20084;-66
2022/03/20 06:40:43;;;;;;;10.00;1.38;;;22.60;99.90;;;;;;5023807;28;20071;-66
2022/03/20 06:43:10;;;;;;;10.90;2.03;;;22.60;99.90;;;;;;5013335;28;20111;-70
2022/03/20 06:45:38;;;;;;;8.25;1.60;;;22.60;99.90;;;;;;5026180;28;20041;-70
2022/03/20 06:48:06;;;;;;;10.05;1.83;;;22.60;99.90;;;;;;5032967;28;20026;-70
2022/03/20 06:50:34;;;;;;;10.18;1.42;;;22.60;99.90;;;;;;5028861;28;20026;-71
2022/03/20 06:53:04;;;;;;;7.63;1.48;;;22.60;99.90;;;;;;5031663;28;20109;-71
2022/03/20 06:55:31;;;;;;;10.98;1.35;;;22.50;99.90;;;;;;5030354;28;20021;-70
2022/03/20 06:57:59;;;;;;;10.13;1.50;;;22.50;99.90;;;;;;5027758;28;20031;-71
2022/03/20 07:00:31;;;;;;;10.23;1.83;;;22.50;99.90;;;;;;5030922;28;20119;-71
2022/03/20 07:03:03;;;;;;;7.07;1.60;;;22.40;99.90;;;;;;5029303;28;20500;-72
2022/03/20 07:05:34;;;;;;;7.68;1.40;;;22.40;99.90;;;;;;5026528;28;20052;-71
2022/03/20 07:08:02;;;;;;;7.32;1.70;;;22.40;99.90;;;;;;5017637;28;20096;-71
2022/03/20 07:10:29;;;;;;;8.95;1.17;;;22.40;99.90;;;;;;5030148;28;20033;-71
2022/03/20 07:15:45;;;;;;;6.78;1.50;;;22.40;99.90;;;;;;5029824;28;20072;-68
2022/03/20 07:18:15;;;;;;;11.05;1.92;;;22.50;99.90;;;;;;5031895;28;20029;-68
2022/03/20 07:20:45;;;;;;;6.63;1.13;;;22.50;99.90;;;;;;5031757;28;20034;-68
2022/03/20 07:23:13;;;;;;;9.00;1.45;;;22.50;99.90;;;;;;5030948;28;20018;-69
2022/03/20 07:31:13;;;;;;;9.00;1.65;;;22.20;99.90;;;;;;5023747;28;20064;-69
2022/03/20 07:33:41;;;;;;;11.43;2.00;;;22.10;99.90;;;;;;5025605;28;20069;-68
2022/03/20 07:36:09;;;;;;;14.18;3.60;;;22.00;99.90;;;;;;5025473;28;20394;-69
2022/03/20 07:38:36;;;;;;;10.70;2.65;;;22.00;99.90;;;;;;5027797;28;20021;-69
2022/03/20 07:41:04;;;;;;;7.53;2.08;;;22.00;99.90;;;;;;5029555;28;20492;-69
2022/03/20 07:43:31;;;;;;;10.40;1.83;;;21.80;99.90;;;;;;5030110;28;20112;-69
2022/03/20 07:45:58;;;;;;;7.50;1.83;;;21.80;99.90;;;;;;5027582;28;20029;-69
2022/03/20 07:48:26;;;;;;;7.88;1.10;;;21.80;99.90;;;;;;5030953;28;20090;-69
2022/03/20 07:50:53;;;;;;;8.30;2.05;;;21.70;99.90;;;;;;5025498;28;20018;-68
2022/03/20 07:53:21;;;;;;;9.07;1.35;;;21.60;99.90;;;;;;5027646;28;20033;-68
2022/03/20 07:55:48;;;;;;;8.77;1.40;;;21.50;99.90;;;;;;5025837;28;20042;-68
2022/03/20 07:58:20;;;;;;;4.40;1.10;;;21.60;99.90;;;;;;5027255;28;20021;-68
2022/03/20 08:00:48;;;;;;;11.65;2.03;;;21.50;99.90;;;;;;5030220;28;20393;-68
2022/03/20 08:03:16;;;;;;;6.57;1.33;;;21.50;99.90;;;;;;5029822;28;20042;-69
2022/03/20 08:05:43;;;;;;;5.47;1.40;;;21.50;99.90;;;;;;5030321;28;20026;-69
2022/03/20 08:08:14;;;;;;;10.30;1.45;;;21.40;99.90;;;;;;5030295;28;20022;-69
2022/03/20 08:10:43;;;;;;;11.50;1.73;;;21.40;99.90;;;;;;5029497;28;20084;-68
2022/03/20 08:13:12;;;;;;;8.25;1.13;;;21.30;99.90;;;;;;5030108;28;20438;-68
2022/03/20 08:15:40;;;;;;;8.90;1.98;;;21.30;99.90;;;;;;5032563;28;20030;-68
2022/03/20 08:18:08;;;;;;;7.32;1.58;;;21.30;99.90;;;;;;5034139;28;20156;-69
2022/03/20 08:20:36;;;;;;;11.18;2.47;;;21.30;99.90;;;;;;5030470;28;20037;-68
2022/03/20 08:23:04;;;;;;;8.05;0.63;;;21.20;99.90;;;;;;5030431;28;20030;-68
2022/03/20 08:25:31;;;;;;;6.50;1.23;;;21.20;99.90;;;;;;5029476;28;20075;-69
2022/03/20 08:27:59;;;;;;;9.20;1.58;;;21.20;99.90;;;;;;5031664;28;20052;-68
2022/03/20 08:30:27;;;;;;;8.63;1.65;;;21.20;99.90;;;;;;5029576;28;20022;-68
2022/03/20 08:32:55;;;;;;;5.90;1.23;;;21.20;99.90;;;;;;5035928;28;20017;-68
2022/03/20 08:35:22;;;;;;;11.48;2.28;;;21.20;99.90;;;;;;5035889;28;20040;-68
2022/03/20 08:37:53;;;;;;;7.45;1.60;;;21.20;99.90;;;;;;5035553;28;20045;-68
2022/03/20 08:40:22;;;;;;;10.10;1.52;;;21.20;99.90;;;;;;5039566;28;20042;-68
2022/03/20 08:42:53;;;;;;;7.90;1.50;;;21.20;99.90;;;;;;5037911;28;21026;-68
2022/03/20 08:45:22;;;;;;;10.40;1.92;;;21.20;99.90;;;;;;5037617;28;20190;-68
2022/03/20 08:47:50;;;;;;;12.98;1.73;;;21.20;99.90;;;;;;5034579;28;20394;-68
2022/03/20 08:50:19;;;;;;;14.18;1.60;;;21.20;99.90;;;;;;5034158;28;20529;-67
2022/03/20 08:52:48;;;;;;;6.22;1.60;;;21.20;99.90;;;;;;5036370;28;20025;-68
2022/03/20 08:55:17;;;;;;;7.78;1.42;;;21.20;99.90;;;;;;5037753;28;20525;-68
2022/03/20 08:57:47;;;;;;;8.43;2.05;;;21.20;99.90;;;;;;5036879;28;20053;-68
2022/03/20 09:00:21;;;;;;;9.25;1.20;;;21.20;99.90;;;;;;5032508;28;20040;-68
2022/03/20 09:02:49;;;;;;;7.72;1.13;;;21.20;99.90;;;;;;5031917;28;20632;-68
2022/03/20 09:05:18;;;;;;;6.68;1.17;;;21.30;99.90;;;;;;5053052;28;20036;-68
2022/03/20 09:07:47;;;;;;;8.55;1.42;;;21.20;99.90;;;;;;5033460;28;20246;-68
2022/03/20 09:10:16;;;;;;;6.68;1.75;;;21.20;99.90;;;;;;5036564;28;20436;-68
2022/03/20 09:12:44;;;;;;;7.85;1.23;;;21.20;99.90;;;;;;5050484;28;20021;-68
2022/03/20 09:15:14;;;;;;;6.03;0.70;;;21.10;99.90;;;;;;5039087;28;20394;-68
2022/03/20 09:20:32;;;;;;;8.55;1.67;;;21.20;99.90;;;;;;5036254;28;20049;-68
2022/03/20 09:22:59;;;;;;;9.48;1.30;;;21.20;99.90;;;;;;5034195;28;20037;-67
2022/03/20 09:25:26;;;;;;;11.55;1.67;;;21.10;99.90;;;;;;5040461;28;20108;-68
2022/03/20 09:27:54;;;;;;;6.25;1.30;;;21.10;99.90;;;;;;5038453;28;20045;-67
2022/03/20 09:30:22;;;;;;;4.28;1.02;;;21.10;99.90;;;;;;5038714;28;20021;-68
2022/03/20 09:32:49;;;;;;;5.88;1.65;;;21.10;99.90;;;;;;5038925;28;20033;-67
2022/03/20 09:35:18;;;;;;;7.70;1.15;;;21.10;99.90;;;;;;5046432;28;20025;-67
2022/03/20 09:37:46;;;;;;;14.70;2.00;;;21.10;99.90;;;;;;5048444;28;20768;-67
2022/03/20 09:40:14;;;;;;;4.05;0.70;;;21.00;99.90;;;;;;5045976;28;20717;-67
2022/03/20 09:42:43;;;;;;;8.52;1.27;;;21.00;99.90;;;;;;5045301;28;20029;-67
2022/03/20 09:45:11;;;;;;;8.80;0.93;;;21.00;99.90;;;;;;5048446;28;20042;-67
2022/03/20 09:47:40;;;;;;;12.75;1.00;;;21.00;99.90;;;;;;5044652;28;20033;-66
2022/03/20 09:50:09;;;;;;;13.07;1.30;;;21.00;99.90;;;;;;5045438;28;20064;-67
2022/03/20 09:52:38;;;;;;;5.30;1.20;;;21.00;99.90;;;;;;5044694;28;20022;-67
2022/03/20 09:55:08;;;;;;;9.60;1.27;;;21.00;99.90;;;;;;5040703;28;20101;-68
2022/03/20 09:57:35;;;;;;;6.38;0.88;;;21.00;99.90;;;;;;5041511;28;20033;-67
2022/03/20 10:00:10;;;;;;;7.32;0.65;;;21.00;99.90;;;;;;5044710;28;20026;-67
2022/03/20 10:02:38;;;;;;;8.55;1.45;;;20.90;99.90;;;;;;5041794;28;20037;-67
2022/03/20 10:05:08;;;;;;;10.82;1.15;;;20.90;99.90;;;;;;5042328;28;20041;-67
2022/03/20 10:07:43;;;;;;;9.85;1.55;;;20.90;99.90;;;;;;5042086;28;20057;-67
2022/03/20 10:10:19;;;;;;;3.15;0.80;;;20.90;99.90;;;;;;5042864;28;20041;-67
2022/03/20 10:12:53;;;;;;;7.75;1.23;;;20.90;99.90;;;;;;5042851;28;20489;-67
2022/03/20 10:15:28;;;;;;;8.88;1.38;;;20.80;99.90;;;;;;5039254;28;20033;-68
2022/03/20 10:18:21;;;;;;;7.15;0.80;;;20.80;99.90;;;;;;5042457;28;20029;-67
2022/03/20 10:20:59;;;;;;;6.60;1.20;;;20.80;99.90;;;;;;5044177;28;20029;-67
2022/03/20 10:23:41;;;;;;;8.27;1.25;;;20.80;99.90;;;;;;5040821;28;20022;-68
2022/03/20 10:26:11;;;;;;;5.32;1.08;;;20.80;99.90;;;;;;5040449;28;20026;-67
2022/03/20 10:28:40;;;;;;;5.47;1.17;;;20.80;99.90;;;;;;5041510;28;20034;-68
2022/03/20 10:31:25;;;;;;;4.15;0.60;;;20.80;99.90;;;;;;5051665;28;20034;-67
2022/03/20 10:34:09;;;;;;;4.97;1.27;;;20.80;99.90;;;;;;5039832;28;20021;-68
2022/03/20 10:36:37;;;;;;;6.07;0.70;;;20.70;99.90;;;;;;5037547;28;20026;-68
2022/03/20 10:39:19;;;;;;;11.48;2.35;;;20.70;99.90;;;;;;5042567;28;20489;-68
2022/03/20 10:41:53;;;;;;;6.20;1.00;;;20.70;99.90;;;;;;5042919;28;20041;-68
2022/03/20 10:44:25;;;;;;;8.20;0.85;;;20.70;99.90;;;;;;5044727;28;20021;-68
2022/03/20 10:47:10;;;;;;;4.57;0.55;;;20.70;99.90;;;;;;5047967;28;20029;-68
2022/03/20 10:50:06;;;;;;;8.18;0.90;;;20.70;99.90;;;;;;5047274;28;20018;-68
2022/03/20 10:52:37;;;;;;;6.50;0.73;;;20.70;99.90;;;;;;5030626;28;20042;-67
2022/03/20 10:55:10;;;;;;;5.88;0.73;;;20.80;99.90;;;;;;5046550;28;20049;-68
2022/03/20 10:57:38;;;;;;;7.15;0.90;;;20.80;99.90;;;;;;5052634;28;20025;-68
2022/03/20 11:00:08;;;;;;;8.27;1.50;;;20.70;99.90;;;;;;5037434;28;20063;-68
2022/03/20 11:02:58;;;;;;;6.13;0.85;;;20.70;99.90;;;;;;5032314;28;20530;-68
2022/03/20 11:05:25;;;;;;;4.95;0.77;;;20.70;99.90;;;;;;5031776;28;20030;-68
2022/03/20 11:07:53;;;;;;;10.20;0.80;;;20.60;99.90;;;;;;5042122;28;20029;-68
2022/03/20 11:10:21;;;;;;;5.88;1.08;;;20.60;99.90;;;;;;5051408;28;20041;-68
2022/03/20 11:12:49;;;;;;;9.70;0.93;;;20.60;99.90;;;;;;5053299;28;20021;-68
2022/03/20 11:15:17;;;;;;;3.63;0.80;;;20.60;99.90;;;;;;5038695;28;20022;-68
2022/03/20 11:17:46;;;;;;;8.57;0.60;;;20.60;99.90;;;;;;5047839;28;20026;-68
2022/03/20 11:20:16;;;;;;;6.05;0.55;;;20.50;99.90;;;;;;5045271;28;20049;-66
2022/03/20 11:22:48;;;;;;;7.45;0.70;;;20.50;99.90;;;;;;5049687;28;20021;-66
2022/03/20 11:25:21;;;;;;;6.05;0.70;;;20.40;99.90;;;;;;5049643;28;20387;-66
2022/03/20 11:27:55;;;;;;;5.90;0.80;;;20.40;99.90;;;;;;5049199;28;20045;-66
2022/03/20 11:30:27;;;;;;;;;;;20.40;99.90;;;;;;5047617;28;20051;-67
2022/03/20 11:32:57;;;;;;;4.65;0.50;;;20.30;99.90;;;;;;5048053;28;19909;-67
2022/03/20 11:35:28;;;;;;;9.00;0.85;;;20.30;99.90;;;;;;5047238;28;20017;-67
2022/03/20 11:37:58;;;;;;;7.13;0.90;;;20.20;99.90;;;;;;5044609;28;20072;-66
2022/03/20 11:40:30;;;;;;;15.25;1.90;;;20.10;99.90;;;;;;5046901;28;20044;-68
2022/03/20 11:43:23;;;;;;;12.13;1.25;;;20.10;99.90;;;;;;5047957;28;20067;-67
2022/03/20 11:46:29;;;;;;;7.72;0.77;;;20.10;99.90;;;;;;5043050;28;20033;-68
2022/03/20 11:49:17;;;;;;;10.07;1.00;;;20.20;99.90;;;;;;5047576;28;20345;-67
2022/03/20 11:51:56;;;;;;;12.88;1.70;;;20.10;99.90;;;;;;5051006;28;20089;-67
2022/03/20 11:54:40;;;;;;;9.48;1.65;;;20.10;99.90;;;;;;5047034;28;20032;-67
2022/03/20 11:57:29;;;;;;;7.20;0.90;;;20.10;99.90;;;;;;5051528;28;20108;-67
2022/03/20 12:00:00;;;;;;;5.10;1.10;;;20.00;99.90;;;;;;5046366;28;20022;-67
2022/03/20 12:03:04;;;;;;;10.43;1.98;;;20.00;99.90;;;;;;5051515;28;20035;-67
2022/03/20 12:05:54;;;;;;;8.45;1.13;;;20.00;99.90;;;;;;5051095;28;20029;-68
2022/03/20 12:08:30;;;;;;;4.60;1.25;;;20.00;99.90;;;;;;5053151;28;20046;-67
2022/03/20 12:10:58;;;;;;;9.70;1.52;;;19.80;99.90;;;;;;5055588;28;20033;-67
2022/03/20 12:13:45;;;;;;;9.45;1.20;;;19.70;99.90;;;;;;5053643;28;20108;-67
2022/03/20 12:16:12;;;;;;;9.63;1.58;;;19.70;99.90;;;;;;5058152;28;20025;-67
2022/03/20 12:19:07;;;;;;;5.32;1.15;;;19.60;99.90;;;;;;5057865;28;20017;-67
2022/03/20 12:22:02;;;;;;;6.68;1.50;;;19.60;99.90;;;;;;5055905;28;20061;-67
2022/03/20 12:24:38;;;;;;;6.95;1.00;;;19.60;99.90;;;;;;5056294;28;20032;-67
2022/03/20 12:27:24;;;;;;;6.85;1.27;;;19.70;99.90;;;;;;5058903;28;20010;-67
2022/03/20 12:30:07;;;;;;;6.75;1.67;;;19.70;99.90;;;;;;5056993;28;20081;-67
2022/03/20 12:32:55;;;;;;;6.88;1.33;;;19.60;99.90;;;;;;5057738;28;20026;-67
2022/03/20 12:35:24;;;;;;;8.63;1.70;;;19.70;99.90;;;;;;5055865;28;20029;-67
2022/03/20 12:37:55;;;;;;;9.90;1.42;;;19.80;99.90;;;;;;5054078;28;20052;-67
2022/03/20 12:40:26;;;;;;;8.27;1.67;;;19.80;99.90;;;;;;5055983;28;20055;-67
2022/03/20 12:43:01;;;;;;;8.13;1.45;;;19.80;99.90;;;;;;5058597;28;20022;-67
2022/03/20 12:45:30;;;;;;;5.25;1.45;;;19.80;99.90;;;;;;5055861;28;20037;-67
2022/03/20 12:47:59;;;;;;;10.63;2.00;;;19.80;99.90;;;;;;5057484;28;20028;-67
2022/03/20 12:50:32;;;;;;;9.07;1.02;;;19.70;99.90;;;;;;5057608;28;20077;-67
2022/03/20 12:53:09;;;;;;;6.90;1.25;;;19.70;99.90;;;;;;5053283;28;20041;-67
2022/03/20 12:55:38;;;;;;;15.40;2.35;;;19.60;99.90;;;;;;5054401;28;20029;-67
2022/03/20 12:58:08;;;;;;;9.32;1.30;;;19.60;99.90;;;;;;5054771;28;20026;-67
2022/03/20 13:00:37;;;;;;;9.68;1.38;;;19.60;99.90;;;;;;5057342;28;20032;-67
2022/03/20 13:03:11;;;;;;;8.43;1.15;;;19.60;99.90;;;;;;5051679;28;20017;-68
2022/03/20 13:06:00;;;;;;;9.75;1.27;;;19.60;99.90;;;;;;5048217;28;20123;-67
2022/03/20 13:08:31;;;;;;;11.88;2.35;;;19.60;99.90;;;;;;5057077;28;20040;-67
2022/03/20 13:14:13;;;;;;;6.95;1.00;;;19.60;99.90;;;;;;5048980;28;20055;-67
2022/03/20 13:17:02;;;;;;;11.65;1.38;;;19.50;99.90;;;;;;5054425;28;20047;-67
2022/03/20 13:19:40;;;;;;;8.23;1.05;;;19.50;99.90;;;;;;5053292;28;20025;-67
2022/03/20 13:22:10;;;;;;;10.32;1.90;;;19.50;99.90;;;;;;5052951;28;20040;-67
2022/03/20 13:24:43;;;;;;;6.78;1.08;;;19.60;99.90;;;;;;5053360;28;20081;-67
2022/03/20 13:27:11;;;;;;;8.55;1.35;;;19.60;99.90;;;;;;5047146;28;20017;-67
2022/03/20 13:29:42;;;;;;;13.25;1.08;;;19.60;99.90;;;;;;5054991;28;20017;-67
2022/03/20 13:32:14;;;;;;;9.70;1.42;;;19.50;99.90;;;;;;5053574;28;20404;-67
2022/03/20 13:34:47;;;;;;;12.50;1.83;;;19.50;99.90;;;;;;5049143;28;20104;-67
2022/03/20 13:37:17;;;;;;;7.45;1.27;;;19.40;99.90;;;;;;5047984;28;20037;-67